createdAt,value
2022-09-15T00:00:57.391Z,13.53
2022-09-15T00:03:59.182Z,15.33
2022-09-15T00:07:00.869Z,15.20
2022-09-15T00:10:05.192Z,10.77
2022-09-15T00:13:06.825Z,14.20
2022-09-15T00:16:10.942Z,14.03
2022-09-15T00:19:15.398Z,14.20
2022-09-15T00:22:17.914Z,17.47
2022-09-15T00:25:19.571Z,15.53
2022-09-15T00:28:22.663Z,15.03
2022-09-15T00:31:26.203Z,13.93
2022-09-15T00:34:27.880Z,13.30
2022-09-15T00:37:29.565Z,16.73
2022-09-15T00:40:31.344Z,15.73
2022-09-15T00:43:47.744Z,11.07
2022-09-15T00:47:09.697Z,18.30
2022-09-15T00:50:18.595Z,18.23
2022-09-15T00:53:20.963Z,14.67
2022-09-15T00:56:23.452Z,18.30
2022-09-15T00:59:29.986Z,14.70
2022-09-15T01:02:34.207Z,14.57
2022-09-15T01:05:41.358Z,13.57
2022-09-15T01:08:49.994Z,15.43
2022-09-15T01:11:51.924Z,13.60
2022-09-15T01:15:37.132Z,12.53
2022-09-15T01:19:03.063Z,11.53
2022-09-15T01:22:07.519Z,17.50
2022-09-15T01:25:44.520Z,12.30
2022-09-15T01:29:21.908Z,14.73
2022-09-15T01:32:42.480Z,12.03
2022-09-15T01:35:49.200Z,12.97
2022-09-15T01:39:01.010Z,16.80
2022-09-15T01:42:07.574Z,12.27
2022-09-15T01:45:17.911Z,18.97
2022-09-15T01:48:24.507Z,17.37
2022-09-15T01:51:28.325Z,15.13
2022-09-15T01:54:35.733Z,13.20
2022-09-15T01:57:37.512Z,12.47
2022-09-15T02:00:45.289Z,11.30
2022-09-15T02:03:55.486Z,14.07
2022-09-15T02:07:11.517Z,11.10
2022-09-15T02:10:25.983Z,12.10
2022-09-15T02:13:48.543Z,13.37
2022-09-15T02:16:53.467Z,13.10
2022-09-15T02:20:06.936Z,13.93
2022-09-15T02:23:16.028Z,12.23
2022-09-15T02:26:20.469Z,13.73
2022-09-15T02:29:26.147Z,12.57
2022-09-15T02:32:30.529Z,13.83
2022-09-15T02:35:34.967Z,14.53
2022-09-15T02:38:43.104Z,12.43
2022-09-15T02:41:45.564Z,11.73
2022-09-15T02:44:47.233Z,14.40
2022-09-15T02:47:50.199Z,14.57
2022-09-15T02:50:51.904Z,14.93
2022-09-15T02:53:53.685Z,14.43
2022-09-15T02:56:55.358Z,11.43
2022-09-15T03:00:15.901Z,14.07
2022-09-15T03:03:18.909Z,11.73
2022-09-15T03:06:21.440Z,12.03
2022-09-15T03:09:23.075Z,13.30
2022-09-15T03:12:25.893Z,13.30
2022-09-15T03:15:27.604Z,16.13
2022-09-15T03:18:29.247Z,15.07
2022-09-15T03:21:31.223Z,16.97
2022-09-15T03:24:33.693Z,12.13
2022-09-15T03:27:35.891Z,14.43
2022-09-15T03:30:37.529Z,16.67
2022-09-15T03:33:40.204Z,12.73
2022-09-15T03:36:42.112Z,14.20
2022-09-15T03:39:43.927Z,13.00
2022-09-15T03:42:45.619Z,13.93
2022-09-15T03:45:47.410Z,15.67
2022-09-15T03:48:49.119Z,11.70
2022-09-15T03:51:51.365Z,16.13
2022-09-15T03:54:53.035Z,17.07
2022-09-15T03:57:55.333Z,11.97
2022-09-15T04:00:57.078Z,15.17
2022-09-15T04:03:58.902Z,12.43
2022-09-15T04:07:00.649Z,17.40
2022-09-15T04:10:02.593Z,13.77
2022-09-15T04:13:04.253Z,16.07
2022-09-15T04:16:08.973Z,9.13
2022-09-15T04:19:10.690Z,11.80
2022-09-15T04:22:17.032Z,14.10
2022-09-15T04:25:19.439Z,17.00
2022-09-15T04:28:21.165Z,16.73
2022-09-15T04:31:23.160Z,15.20
2022-09-15T04:34:25.354Z,17.13
2022-09-15T04:37:27.022Z,19.13
2022-09-15T04:40:28.773Z,19.37
2022-09-15T04:43:30.821Z,15.80
2022-09-15T04:46:58.075Z,21.83
2022-09-15T04:49:59.780Z,17.67
2022-09-15T04:53:01.450Z,15.93
2022-09-15T04:56:08.791Z,16.80
2022-09-15T04:59:15.572Z,16.37
2022-09-15T05:02:17.661Z,20.07
2022-09-15T05:05:19.899Z,18.20
2022-09-15T05:08:21.548Z,22.20
2022-09-15T05:11:24.244Z,16.60
2022-09-15T05:14:26.467Z,16.77
2022-09-15T05:17:32.434Z,18.93
2022-09-15T05:20:34.305Z,13.87
2022-09-15T05:23:37.422Z,18.67
2022-09-15T05:26:39.249Z,14.53
2022-09-15T05:29:40.895Z,15.90
2022-09-15T05:32:42.756Z,14.27
2022-09-15T05:36:11.050Z,15.23
2022-09-15T05:39:12.740Z,15.67
2022-09-15T05:42:14.386Z,14.80
2022-09-15T05:45:16.345Z,16.87
2022-09-15T05:48:18.088Z,16.37
2022-09-15T05:51:20.939Z,18.20
2022-09-15T05:54:22.681Z,15.23
2022-09-15T05:57:24.349Z,15.30
2022-09-15T06:00:26.006Z,15.70
2022-09-15T06:03:30.753Z,12.93
2022-09-15T06:06:33.196Z,13.80
2022-09-15T06:09:35.081Z,11.03
2022-09-15T06:12:36.724Z,14.10
2022-09-15T06:15:38.404Z,15.73
2022-09-15T06:18:41.130Z,12.10
2022-09-15T06:21:42.901Z,13.47
2022-09-15T06:24:44.587Z,11.67
2022-09-15T06:27:49.593Z,11.33
2022-09-15T06:30:51.667Z,10.27
2022-09-15T06:33:55.863Z,16.67
2022-09-15T06:36:57.525Z,11.53
2022-09-15T06:39:59.338Z,11.23
2022-09-15T06:43:01.425Z,7.87
2022-09-15T06:46:09.055Z,13.20
2022-09-15T06:49:10.900Z,10.40
2022-09-15T06:52:12.550Z,11.30
2022-09-15T06:55:14.261Z,10.53
2022-09-15T06:58:15.943Z,8.70
2022-09-15T07:01:31.592Z,13.20
2022-09-15T07:04:36.886Z,11.97
2022-09-15T07:07:38.549Z,11.33
2022-09-15T07:10:44.173Z,9.27
2022-09-15T07:13:47.192Z,7.90
2022-09-15T07:16:48.924Z,9.50
2022-09-15T07:19:50.595Z,10.77
2022-09-15T07:22:52.276Z,8.77
2022-09-15T07:26:11.197Z,11.97
2022-09-15T07:29:12.922Z,11.80
2022-09-15T07:32:14.561Z,8.50
2022-09-15T07:35:16.287Z,10.77
2022-09-15T07:38:17.933Z,5.83
2022-09-15T07:41:28.151Z,6.70
2022-09-15T07:44:29.801Z,8.43
2022-09-15T07:47:31.476Z,6.80
2022-09-15T07:50:33.182Z,5.43
2022-09-15T07:53:34.929Z,9.97
2022-09-15T07:56:36.863Z,7.07
2022-09-15T07:59:41.200Z,6.83
2022-09-15T08:02:43.127Z,6.93
2022-09-15T08:05:45.746Z,5.63
2022-09-15T08:08:48.975Z,6.17
2022-09-15T08:11:50.633Z,8.30
2022-09-15T08:14:52.443Z,8.20
2022-09-15T08:17:54.161Z,6.90
2022-09-15T08:20:55.818Z,8.90
2022-09-15T08:23:59.546Z,5.80
2022-09-15T08:27:01.218Z,5.50
2022-09-15T08:30:03.761Z,5.33
2022-09-15T08:33:05.396Z,8.17
2022-09-15T08:36:13.219Z,7.37
2022-09-15T08:39:14.856Z,5.13
2022-09-15T08:42:18.751Z,13.23
2022-09-15T08:45:25.323Z,5.30
2022-09-15T08:48:34.276Z,8.33
2022-09-15T08:51:47.169Z,4.50
2022-09-15T08:54:53.510Z,9.87
2022-09-15T08:57:55.533Z,4.60
2022-09-15T09:01:33.574Z,6.10
2022-09-15T09:04:57.656Z,4.53
2022-09-15T09:08:18.126Z,10.97
2022-09-15T09:11:56.947Z,7.63
2022-09-15T09:15:15.880Z,6.17
2022-09-15T09:18:25.705Z,5.73
2022-09-15T09:21:38.354Z,4.77
2022-09-15T09:24:43.227Z,5.70
2022-09-15T09:27:45.423Z,6.17
2022-09-15T09:30:48.629Z,6.70
2022-09-15T09:34:03.339Z,4.40
2022-09-15T09:37:15.927Z,3.57
2022-09-15T09:40:18.357Z,3.13
2022-09-15T09:43:20.421Z,2.27
2022-09-15T09:46:22.403Z,5.30
2022-09-15T09:49:25.240Z,2.40
2022-09-15T09:52:34.183Z,4.83
2022-09-15T09:55:35.905Z,1.80
2022-09-15T09:58:37.573Z,5.93
2022-09-15T10:01:39.324Z,7.10
2022-09-15T10:04:52.406Z,1.27
2022-09-15T10:08:01.648Z,4.77
2022-09-15T10:11:06.081Z,9.43
2022-09-15T10:14:18.856Z,2.47
2022-09-15T10:17:37.593Z,3.47
2022-09-15T10:20:47.825Z,1.93
2022-09-15T10:23:49.496Z,3.13
2022-09-15T10:26:51.205Z,1.37
2022-09-15T10:29:53.913Z,3.33
2022-09-15T10:32:55.570Z,8.10
2022-09-15T10:36:19.635Z,5.73
2022-09-15T10:39:38.761Z,3.57
2022-09-15T10:42:48.877Z,2.23
2022-09-15T10:46:00.239Z,1.23
2022-09-15T10:49:33.269Z,1.53
2022-09-15T10:52:49.050Z,2.63
2022-09-15T10:55:59.734Z,2.73
2022-09-15T10:59:29.052Z,4.40
2022-09-15T11:02:52.497Z,0.60
2022-09-15T11:06:15.840Z,1.03
2022-09-15T11:09:23.665Z,3.53
2022-09-15T11:12:43.606Z,2.17
2022-09-15T11:16:05.938Z,1.80
2022-09-15T11:19:35.280Z,1.43
2022-09-15T11:23:20.721Z,2.97
2022-09-15T11:26:32.820Z,2.77
2022-09-15T11:29:40.568Z,2.47
2022-09-15T11:33:10.808Z,2.57
2022-09-15T11:36:24.893Z,1.80
2022-09-15T11:39:41.873Z,2.03
2022-09-15T11:43:01.062Z,2.03
2022-09-15T11:46:09.594Z,3.30
2022-09-15T11:49:20.306Z,2.17
2022-09-15T11:52:53.157Z,3.03
2022-09-15T11:56:18.707Z,3.40
2022-09-15T11:59:41.467Z,2.50
2022-09-15T12:03:01.877Z,2.43
2022-09-15T12:06:12.996Z,1.47
2022-09-15T12:09:17.603Z,7.43
2022-09-15T12:12:22.309Z,4.53
2022-09-15T12:15:27.158Z,2.27
2022-09-15T12:18:43.844Z,1.53
2022-09-15T12:21:59.537Z,3.00
2022-09-15T12:25:03.700Z,1.87
2022-09-15T12:28:24.149Z,3.67
2022-09-15T12:31:29.403Z,1.20
2022-09-15T12:34:31.461Z,1.47
2022-09-15T12:37:54.413Z,3.00
2022-09-15T12:40:59.471Z,2.77
2022-09-15T12:44:17.614Z,2.67
2022-09-15T12:47:28.624Z,1.77
2022-09-15T12:50:37.344Z,1.50
2022-09-15T12:54:04.481Z,5.63
2022-09-15T12:57:15.685Z,0.60
2022-09-15T13:00:20.371Z,1.70
2022-09-15T13:07:15.732Z,3.00
2022-09-15T13:10:28.791Z,4.23
2022-09-15T13:13:51.974Z,2.43
2022-09-15T13:17:22.515Z,2.63
2022-09-15T13:20:29.956Z,0.90
2022-09-15T13:23:36.808Z,4.03
2022-09-15T13:26:38.705Z,2.07
2022-09-15T13:29:55.879Z,1.83
2022-09-15T13:33:12.797Z,6.73
2022-09-15T13:40:30.300Z,4.70
2022-09-15T13:44:00.691Z,2.80
2022-09-15T13:47:49.652Z,1.37
2022-09-15T13:51:01.822Z,2.37
2022-09-15T13:54:08.285Z,0.30
2022-09-15T13:57:09.967Z,0.93
2022-09-15T14:00:22.999Z,2.47
2022-09-15T14:03:39.317Z,0.77
2022-09-15T14:06:45.320Z,4.93
2022-09-15T14:09:47.788Z,2.80
2022-09-15T14:12:51.230Z,1.50
2022-09-15T14:15:57.562Z,1.93
2022-09-15T14:19:00.334Z,1.57
2022-09-15T14:22:24.685Z,1.27
2022-09-15T14:25:29.516Z,1.33
2022-09-15T14:28:32.644Z,2.77
2022-09-15T14:31:37.752Z,3.90
2022-09-15T14:34:41.888Z,3.67
2022-09-15T14:37:56.305Z,1.23
2022-09-15T14:40:59.364Z,5.07
2022-09-15T14:44:01.373Z,8.07
2022-09-15T14:47:12.232Z,2.70
2022-09-15T14:50:21.677Z,2.13
2022-09-15T14:53:25.271Z,2.53
2022-09-15T14:56:32.946Z,2.73
2022-09-15T14:59:41.723Z,1.50
2022-09-15T15:03:03.471Z,2.03
2022-09-15T15:06:34.770Z,4.17
2022-09-15T15:09:58.726Z,5.97
2022-09-15T15:13:06.189Z,2.37
2022-09-15T15:16:33.003Z,8.47
2022-09-15T15:19:37.176Z,1.20
2022-09-15T15:22:40.469Z,1.83
2022-09-15T15:25:42.479Z,3.43
2022-09-15T15:28:44.228Z,1.50
2022-09-15T15:31:46.025Z,1.30
2022-09-15T15:35:13.651Z,3.47
2022-09-15T15:38:25.262Z,3.43
2022-09-15T15:41:30.040Z,4.00
2022-09-15T15:44:32.521Z,4.03
2022-09-15T15:47:37.055Z,6.10
2022-09-15T15:50:38.965Z,4.37
2022-09-15T15:53:40.909Z,2.50
2022-09-15T15:56:42.809Z,5.87
2022-09-15T15:59:46.570Z,2.47
2022-09-15T16:02:49.171Z,1.80
2022-09-15T16:05:54.477Z,4.20
2022-09-15T16:09:00.581Z,3.33
2022-09-15T16:12:02.540Z,4.80
2022-09-15T16:15:17.992Z,2.90
2022-09-15T16:18:19.842Z,0.70
2022-09-15T16:21:28.859Z,2.00
2022-09-15T16:24:31.053Z,3.50
2022-09-15T16:27:32.853Z,3.70
2022-09-15T16:30:35.068Z,2.20
2022-09-15T16:33:38.206Z,3.73
2022-09-15T16:36:40.039Z,2.63
2022-09-15T16:39:41.881Z,0.83
2022-09-15T16:42:44.335Z,2.90
2022-09-15T16:45:46.277Z,2.93
2022-09-15T16:52:04.711Z,3.60
2022-09-15T16:55:33.707Z,1.00
2022-09-15T16:58:35.377Z,1.73
2022-09-15T17:01:37.083Z,2.13
2022-09-15T17:04:38.743Z,5.10
2022-09-15T17:07:40.411Z,0.97
2022-09-15T17:10:42.193Z,2.67
2022-09-15T17:13:44.838Z,2.70
2022-09-15T17:16:52.539Z,1.00
2022-09-15T17:19:54.175Z,4.13
2022-09-15T17:22:55.831Z,2.33
2022-09-15T17:25:59.911Z,1.20
2022-09-15T17:29:01.545Z,1.97
2022-09-15T17:32:03.249Z,2.57
2022-09-15T17:35:25.667Z,4.50
2022-09-15T17:38:27.423Z,4.37
2022-09-15T17:41:31.287Z,4.23
2022-09-15T17:44:34.413Z,3.23
2022-09-15T17:47:39.196Z,1.63
2022-09-15T17:50:41.805Z,3.37
2022-09-15T17:53:45.039Z,2.50
2022-09-15T17:56:47.043Z,1.07
2022-09-15T17:59:48.712Z,4.50
2022-09-15T18:03:02.093Z,2.80
2022-09-15T18:06:06.373Z,2.50
2022-09-15T18:09:08.687Z,3.63
2022-09-15T18:12:14.012Z,2.23
2022-09-15T18:15:25.921Z,5.30
2022-09-15T18:18:28.149Z,4.20
2022-09-15T18:21:29.983Z,4.37
2022-09-15T18:24:31.693Z,5.97
2022-09-15T18:27:33.375Z,1.33
2022-09-15T18:30:40.426Z,3.60
2022-09-15T18:33:42.134Z,2.33
2022-09-15T18:36:43.783Z,2.27
2022-09-15T18:39:45.663Z,5.13
2022-09-15T18:42:47.419Z,1.93
2022-09-15T18:45:50.177Z,2.47
2022-09-15T18:48:52.276Z,4.33
2022-09-15T18:51:53.938Z,1.43
2022-09-15T18:54:55.623Z,1.53
2022-09-15T18:58:00.840Z,0.93
2022-09-15T19:01:03.361Z,3.53
2022-09-15T19:04:05.055Z,4.27
2022-09-15T19:07:07.249Z,2.70
2022-09-15T19:10:10.874Z,3.97
2022-09-15T19:13:13.964Z,2.27
2022-09-15T19:16:15.868Z,1.97
2022-09-15T19:19:17.699Z,8.83
2022-09-15T19:22:19.508Z,1.40
2022-09-15T19:25:21.169Z,2.00
2022-09-15T19:28:22.913Z,2.33
2022-09-15T19:31:25.732Z,3.23
2022-09-15T19:34:27.829Z,1.23
2022-09-15T19:37:29.503Z,2.80
2022-09-15T19:40:31.401Z,3.73
2022-09-15T19:43:35.419Z,1.63
2022-09-15T19:46:37.569Z,0.20
2022-09-15T19:49:39.291Z,2.40
2022-09-15T19:52:41.075Z,4.93
2022-09-15T19:55:42.707Z,2.37
2022-09-15T19:58:45.376Z,0.43
2022-09-15T20:01:47.868Z,1.73
2022-09-15T20:04:50.338Z,1.07
2022-09-15T20:07:52.136Z,2.60
2022-09-15T20:10:53.893Z,2.53
2022-09-15T20:13:56.091Z,2.77
2022-09-15T20:17:01.049Z,1.53
2022-09-15T20:20:03.433Z,2.03
2022-09-15T20:23:05.486Z,1.50
2022-09-15T20:26:09.309Z,3.30
2022-09-15T20:29:11.187Z,4.10
2022-09-15T20:32:12.893Z,2.00
2022-09-15T20:35:15.213Z,1.13
2022-09-15T20:38:16.888Z,9.07
2022-09-15T20:41:20.141Z,2.07
2022-09-15T20:44:21.869Z,2.20
2022-09-15T20:47:23.712Z,2.70
2022-09-15T20:50:27.255Z,2.47
2022-09-15T20:53:29.191Z,1.33
2022-09-15T20:56:34.677Z,1.70
2022-09-15T20:59:37.056Z,0.63
2022-09-15T21:02:39.011Z,0.53
2022-09-15T21:05:41.560Z,1.53
2022-09-15T21:08:43.584Z,1.07
2022-09-15T21:11:48.171Z,1.33
2022-09-15T21:14:51.931Z,5.17
2022-09-15T21:17:53.975Z,1.80
2022-09-15T21:21:00.207Z,1.20
2022-09-15T21:24:05.159Z,6.03
2022-09-15T21:27:25.639Z,0.93
2022-09-15T21:30:27.277Z,2.27
2022-09-15T21:33:29.317Z,3.53
2022-09-15T21:36:31.308Z,4.77
2022-09-15T21:39:32.953Z,5.00
2022-09-15T21:42:34.725Z,3.27
2022-09-15T21:45:37.058Z,3.30
2022-09-15T21:48:39.481Z,3.67
2022-09-15T21:51:41.181Z,5.17
2022-09-15T21:54:43.398Z,2.63
2022-09-15T21:57:45.073Z,2.03
2022-09-15T22:00:48.155Z,3.57
2022-09-15T22:03:51.510Z,2.40
2022-09-15T22:06:53.629Z,2.33
2022-09-15T22:09:56.084Z,3.43
2022-09-15T22:12:57.789Z,0.80
2022-09-15T22:16:05.300Z,4.03
2022-09-15T22:19:09.584Z,11.77
2022-09-15T22:22:11.895Z,2.60
2022-09-15T22:25:14.528Z,8.80
2022-09-15T22:28:18.173Z,1.93
2022-09-15T22:31:21.104Z,1.10
2022-09-15T22:34:22.787Z,8.33
2022-09-15T22:37:27.478Z,0.77
2022-09-15T22:40:29.335Z,2.17
2022-09-15T22:43:31.117Z,2.13
2022-09-15T22:46:33.207Z,2.47
2022-09-15T22:49:34.845Z,2.10
2022-09-15T22:52:36.513Z,3.83
2022-09-15T22:55:38.654Z,1.87
2022-09-15T22:58:43.716Z,2.20
2022-09-15T23:01:45.685Z,0.90
2022-09-15T23:04:47.351Z,0.67
2022-09-15T23:07:49.025Z,3.60
2022-09-15T23:10:50.885Z,4.37
2022-09-15T23:13:53.256Z,3.17
2022-09-15T23:16:54.952Z,0.57
2022-09-15T23:19:57.175Z,1.60
2022-09-15T23:23:00.026Z,1.57
2022-09-15T23:26:02.620Z,2.77
2022-09-15T23:29:04.279Z,5.70
2022-09-15T23:32:06.010Z,1.33
2022-09-15T23:35:08.157Z,1.70
2022-09-15T23:38:09.837Z,1.17
2022-09-15T23:41:12.961Z,4.67
2022-09-15T23:44:14.609Z,0.73
2022-09-15T23:47:16.621Z,2.87
2022-09-15T23:50:18.277Z,5.57
2022-09-15T23:53:20.066Z,3.70
2022-09-15T23:56:21.739Z,3.33
2022-09-15T23:59:23.409Z,2.50
